sensor_id;sensor_type;location;lat;lon;timestamp;P1;durP1;ratioP1;P2;durP2;ratioP2
19525;SDS011;9907;42.676;26.348;2023-11-19T00:37:10;1.30;;;0.40;;
19525;SDS011;9907;42.676;26.348;2023-11-19T00:47:46;0.10;;;0.10;;
19525;SDS011;9907;42.676;26.348;2023-11-19T00:50:33;0.20;;;0.20;;
19525;SDS011;9907;42.676;26.348;2023-11-19T00:53:57;0.20;;;0.20;;
19525;SDS011;9907;42.676;26.348;2023-11-19T00:56:46;0.37;;;0.30;;
19525;SDS011;9907;42.676;26.348;2023-11-19T00:59:20;0.30;;;0.30;;
19525;SDS011;9907;42.676;26.348;2023-11-19T01:05:44;0.37;;;0.30;;
19525;SDS011;9907;42.676;26.348;2023-11-19T01:08:30;0.20;;;0.20;;
19525;SDS011;9907;42.676;26.348;2023-11-19T01:21:26;0.30;;;0.30;;
19525;SDS011;9907;42.676;26.348;2023-11-19T01:34:40;0.20;;;0.20;;
19525;SDS011;9907;42.676;26.348;2023-11-19T01:42:10;0.50;;;0.50;;
19525;SDS011;9907;42.676;26.348;2023-11-19T01:45:00;0.30;;;0.30;;
19525;SDS011;9907;42.676;26.348;2023-11-19T01:47:35;0.50;;;0.50;;
19525;SDS011;9907;42.676;26.348;2023-11-19T01:50:13;0.47;;;0.40;;
19525;SDS011;9907;42.676;26.348;2023-11-19T01:52:48;0.50;;;0.50;;
19525;SDS011;9907;42.676;26.348;2023-11-19T01:55:25;0.40;;;0.40;;
19525;SDS011;9907;42.676;26.348;2023-11-19T01:58:06;0.30;;;0.30;;
19525;SDS011;9907;42.676;26.348;2023-11-19T02:00:37;0.20;;;0.20;;
19525;SDS011;9907;42.676;26.348;2023-11-19T02:03:48;0.20;;;0.20;;
19525;SDS011;9907;42.676;26.348;2023-11-19T02:09:24;0.47;;;0.47;;
19525;SDS011;9907;42.676;26.348;2023-11-19T02:11:58;0.20;;;0.20;;
19525;SDS011;9907;42.676;26.348;2023-11-19T02:14:30;0.87;;;0.50;;
19525;SDS011;9907;42.676;26.348;2023-11-19T02:20:43;0.30;;;0.30;;
19525;SDS011;9907;42.676;26.348;2023-11-19T02:23:16;0.37;;;0.33;;
19525;SDS011;9907;42.676;26.348;2023-11-19T02:27:07;0.40;;;0.40;;
19525;SDS011;9907;42.676;26.348;2023-11-19T02:29:21;1.73;;;0.60;;
19525;SDS011;9907;42.676;26.348;2023-11-19T02:32:01;0.50;;;0.50;;
19525;SDS011;9907;42.676;26.348;2023-11-19T02:34:45;0.60;;;0.60;;
19525;SDS011;9907;42.676;26.348;2023-11-19T02:37:18;0.50;;;0.50;;
19525;SDS011;9907;42.676;26.348;2023-11-19T02:51:24;3.40;;;1.23;;
19525;SDS011;9907;42.676;26.348;2023-11-19T02:54:42;1.30;;;1.30;;
19525;SDS011;9907;42.676;26.348;2023-11-19T02:57:41;1.97;;;1.87;;
19525;SDS011;9907;42.676;26.348;2023-11-19T03:00:28;1.90;;;1.80;;
19525;SDS011;9907;42.676;26.348;2023-11-19T03:03:04;1.80;;;1.70;;
19525;SDS011;9907;42.676;26.348;2023-11-19T03:08:55;2.30;;;2.10;;
19525;SDS011;9907;42.676;26.348;2023-11-19T03:11:32;2.40;;;2.20;;
19525;SDS011;9907;42.676;26.348;2023-11-19T03:14:10;2.30;;;2.20;;
19525;SDS011;9907;42.676;26.348;2023-11-19T03:16:46;2.50;;;2.00;;
19525;SDS011;9907;42.676;26.348;2023-11-19T03:19:50;2.20;;;2.00;;
19525;SDS011;9907;42.676;26.348;2023-11-19T03:22:23;1.90;;;1.80;;
19525;SDS011;9907;42.676;26.348;2023-11-19T03:24:52;2.00;;;1.90;;
19525;SDS011;9907;42.676;26.348;2023-11-19T03:27:41;2.07;;;1.97;;
19525;SDS011;9907;42.676;26.348;2023-11-19T03:31:15;2.03;;;1.83;;
19525;SDS011;9907;42.676;26.348;2023-11-19T03:37:39;2.20;;;2.00;;
19525;SDS011;9907;42.676;26.348;2023-11-19T03:43:36;2.40;;;2.20;;
19525;SDS011;9907;42.676;26.348;2023-11-19T03:46:28;2.37;;;2.17;;
19525;SDS011;9907;42.676;26.348;2023-11-19T03:56:24;2.00;;;1.90;;
19525;SDS011;9907;42.676;26.348;2023-11-19T03:59:41;2.43;;;2.30;;
19525;SDS011;9907;42.676;26.348;2023-11-19T04:02:49;2.57;;;2.37;;
19525;SDS011;9907;42.676;26.348;2023-11-19T04:05:34;2.27;;;2.10;;
19525;SDS011;9907;42.676;26.348;2023-11-19T04:08:06;2.00;;;1.80;;
19525;SDS011;9907;42.676;26.348;2023-11-19T04:10:45;2.17;;;2.00;;
19525;SDS011;9907;42.676;26.348;2023-11-19T04:13:15;2.00;;;1.90;;
19525;SDS011;9907;42.676;26.348;2023-11-19T04:15:53;2.80;;;2.60;;
19525;SDS011;9907;42.676;26.348;2023-11-19T04:18:27;2.50;;;2.30;;
19525;SDS011;9907;42.676;26.348;2023-11-19T04:21:05;2.10;;;2.00;;
19525;SDS011;9907;42.676;26.348;2023-11-19T04:24:11;2.23;;;2.07;;
19525;SDS011;9907;42.676;26.348;2023-11-19T04:26:40;1.90;;;1.80;;
19525;SDS011;9907;42.676;26.348;2023-11-19T04:29:19;2.67;;;2.47;;
19525;SDS011;9907;42.676;26.348;2023-11-19T04:31:49;2.10;;;1.90;;
19525;SDS011;9907;42.676;26.348;2023-11-19T04:34:31;1.93;;;1.80;;
19525;SDS011;9907;42.676;26.348;2023-11-19T04:37:08;2.20;;;2.00;;
19525;SDS011;9907;42.676;26.348;2023-11-19T04:39:44;2.40;;;2.20;;
19525;SDS011;9907;42.676;26.348;2023-11-19T04:42:15;2.13;;;1.93;;
19525;SDS011;9907;42.676;26.348;2023-11-19T04:44:50;2.03;;;1.87;;
19525;SDS011;9907;42.676;26.348;2023-11-19T04:47:45;1.80;;;1.70;;
19525;SDS011;9907;42.676;26.348;2023-11-19T04:50:13;2.07;;;1.87;;
19525;SDS011;9907;42.676;26.348;2023-11-19T04:53:04;2.00;;;1.90;;
19525;SDS011;9907;42.676;26.348;2023-11-19T04:55:33;2.40;;;2.20;;
19525;SDS011;9907;42.676;26.348;2023-11-19T04:58:10;2.00;;;1.90;;
19525;SDS011;9907;42.676;26.348;2023-11-19T05:05:03;1.80;;;1.70;;
19525;SDS011;9907;42.676;26.348;2023-11-19T05:08:45;2.00;;;1.90;;
19525;SDS011;9907;42.676;26.348;2023-11-19T05:11:59;2.30;;;2.10;;
19525;SDS011;9907;42.676;26.348;2023-11-19T05:14:49;2.03;;;1.90;;
19525;SDS011;9907;42.676;26.348;2023-11-19T05:17:30;2.53;;;1.80;;
19525;SDS011;9907;42.676;26.348;2023-11-19T05:20:08;2.07;;;1.87;;
19525;SDS011;9907;42.676;26.348;2023-11-19T05:22:49;1.80;;;1.70;;
19525;SDS011;9907;42.676;26.348;2023-11-19T05:25:22;1.80;;;1.70;;
19525;SDS011;9907;42.676;26.348;2023-11-19T05:28:09;2.00;;;1.83;;
19525;SDS011;9907;42.676;26.348;2023-11-19T05:30:40;2.07;;;1.90;;
19525;SDS011;9907;42.676;26.348;2023-11-19T05:33:17;2.00;;;1.90;;
19525;SDS011;9907;42.676;26.348;2023-11-19T05:35:48;2.00;;;1.80;;
19525;SDS011;9907;42.676;26.348;2023-11-19T05:38:22;2.13;;;1.90;;
19525;SDS011;9907;42.676;26.348;2023-11-19T05:41:14;1.90;;;1.80;;
19525;SDS011;9907;42.676;26.348;2023-11-19T05:44:38;2.13;;;1.93;;
19525;SDS011;9907;42.676;26.348;2023-11-19T05:47:13;2.10;;;2.00;;
19525;SDS011;9907;42.676;26.348;2023-11-19T05:50:08;1.90;;;1.80;;
19525;SDS011;9907;42.676;26.348;2023-11-19T05:53:04;1.80;;;1.70;;
19525;SDS011;9907;42.676;26.348;2023-11-19T05:55:41;2.33;;;1.90;;
19525;SDS011;9907;42.676;26.348;2023-11-19T05:58:24;2.70;;;1.70;;
19525;SDS011;9907;42.676;26.348;2023-11-19T06:01:11;2.13;;;1.93;;
19525;SDS011;9907;42.676;26.348;2023-11-19T06:18:59;2.23;;;2.03;;
